sensor_id;sensor_type;location;lat;lon;timestamp;P1;durP1;ratioP1;P2;durP2;ratioP2
80694;SDS011;70059;42.702;23.312;2023-11-22T00:00:19;64.25;;;36.22;;
80694;SDS011;70059;42.702;23.312;2023-11-22T00:02:45;64.32;;;36.28;;
80694;SDS011;70059;42.702;23.312;2023-11-22T00:05:12;53.95;;;34.47;;
80694;SDS011;70059;42.702;23.312;2023-11-22T00:07:38;52.15;;;31.20;;
80694;SDS011;70059;42.702;23.312;2023-11-22T00:10:05;50.70;;;34.03;;
80694;SDS011;70059;42.702;23.312;2023-11-22T00:12:33;57.15;;;33.83;;
80694;SDS011;70059;42.702;23.312;2023-11-22T00:15:06;53.92;;;34.70;;
80694;SDS011;70059;42.702;23.312;2023-11-22T00:17:35;58.22;;;33.97;;
80694;SDS011;70059;42.702;23.312;2023-11-22T00:20:01;59.20;;;34.40;;
80694;SDS011;70059;42.702;23.312;2023-11-22T00:22:30;54.35;;;32.60;;
80694;SDS011;70059;42.702;23.312;2023-11-22T00:24:57;54.97;;;32.90;;
80694;SDS011;70059;42.702;23.312;2023-11-22T00:27:23;47.28;;;31.65;;
80694;SDS011;70059;42.702;23.312;2023-11-22T00:29:50;57.58;;;35.75;;
80694;SDS011;70059;42.702;23.312;2023-11-22T00:32:15;55.20;;;33.25;;
80694;SDS011;70059;42.702;23.312;2023-11-22T00:34:41;53.20;;;32.50;;
80694;SDS011;70059;42.702;23.312;2023-11-22T00:37:07;56.13;;;33.47;;
80694;SDS011;70059;42.702;23.312;2023-11-22T00:39:32;56.22;;;33.40;;
80694;SDS011;70059;42.702;23.312;2023-11-22T00:41:58;57.28;;;35.05;;
80694;SDS011;70059;42.702;23.312;2023-11-22T00:44:24;54.67;;;34.95;;
80694;SDS011;70059;42.702;23.312;2023-11-22T00:46:49;61.70;;;35.95;;
80694;SDS011;70059;42.702;23.312;2023-11-22T00:49:15;62.17;;;38.05;;
80694;SDS011;70059;42.702;23.312;2023-11-22T00:51:41;65.38;;;38.40;;
80694;SDS011;70059;42.702;23.312;2023-11-22T00:54:07;62.67;;;37.28;;
80694;SDS011;70059;42.702;23.312;2023-11-22T00:56:32;60.28;;;35.78;;
80694;SDS011;70059;42.702;23.312;2023-11-22T00:58:58;64.28;;;36.75;;
80694;SDS011;70059;42.702;23.312;2023-11-22T01:01:25;58.58;;;35.50;;
80694;SDS011;70059;42.702;23.312;2023-11-22T01:03:51;58.33;;;36.22;;
80694;SDS011;70059;42.702;23.312;2023-11-22T01:06:16;59.88;;;36.33;;
80694;SDS011;70059;42.702;23.312;2023-11-22T01:08:45;66.68;;;39.80;;
80694;SDS011;70059;42.702;23.312;2023-11-22T01:11:13;73.57;;;40.85;;
80694;SDS011;70059;42.702;23.312;2023-11-22T01:13:38;62.80;;;39.22;;
80694;SDS011;70059;42.702;23.312;2023-11-22T01:16:08;51.65;;;32.88;;
80694;SDS011;70059;42.702;23.312;2023-11-22T01:18:35;54.75;;;32.88;;
80694;SDS011;70059;42.702;23.312;2023-11-22T01:21:00;56.20;;;32.65;;
80694;SDS011;70059;42.702;23.312;2023-11-22T01:23:26;51.88;;;33.55;;
80694;SDS011;70059;42.702;23.312;2023-11-22T01:25:53;58.58;;;35.03;;
80694;SDS011;70059;42.702;23.312;2023-11-22T01:28:19;52.15;;;32.80;;
80694;SDS011;70059;42.702;23.312;2023-11-22T01:30:45;55.10;;;33.30;;
80694;SDS011;70059;42.702;23.312;2023-11-22T01:33:11;54.58;;;34.17;;
80694;SDS011;70059;42.702;23.312;2023-11-22T01:35:37;59.30;;;34.63;;
80694;SDS011;70059;42.702;23.312;2023-11-22T01:38:03;56.05;;;33.85;;
80694;SDS011;70059;42.702;23.312;2023-11-22T01:40:30;55.80;;;34.38;;
80694;SDS011;70059;42.702;23.312;2023-11-22T01:42:56;56.65;;;33.60;;
80694;SDS011;70059;42.702;23.312;2023-11-22T01:45:27;47.35;;;31.55;;
80694;SDS011;70059;42.702;23.312;2023-11-22T01:47:53;50.63;;;30.55;;
80694;SDS011;70059;42.702;23.312;2023-11-22T01:50:19;47.47;;;29.63;;
80694;SDS011;70059;42.702;23.312;2023-11-22T01:52:45;46.92;;;28.98;;
80694;SDS011;70059;42.702;23.312;2023-11-22T01:55:12;46.50;;;28.17;;
80694;SDS011;70059;42.702;23.312;2023-11-22T01:57:38;42.90;;;26.02;;
80694;SDS011;70059;42.702;23.312;2023-11-22T02:00:04;39.22;;;26.25;;
80694;SDS011;70059;42.702;23.312;2023-11-22T02:02:39;45.17;;;28.20;;
80694;SDS011;70059;42.702;23.312;2023-11-22T02:05:04;37.03;;;25.58;;
80694;SDS011;70059;42.702;23.312;2023-11-22T02:07:30;33.17;;;23.80;;
80694;SDS011;70059;42.702;23.312;2023-11-22T02:09:57;39.88;;;24.38;;
80694;SDS011;70059;42.702;23.312;2023-11-22T02:12:23;38.78;;;25.77;;
80694;SDS011;70059;42.702;23.312;2023-11-22T02:14:49;32.78;;;23.80;;
80694;SDS011;70059;42.702;23.312;2023-11-22T02:17:15;33.85;;;23.33;;
80694;SDS011;70059;42.702;23.312;2023-11-22T02:19:42;35.97;;;23.23;;
80694;SDS011;70059;42.702;23.312;2023-11-22T02:22:08;32.25;;;23.17;;
80694;SDS011;70059;42.702;23.312;2023-11-22T02:24:34;34.97;;;24.25;;
80694;SDS011;70059;42.702;23.312;2023-11-22T02:27:00;33.33;;;22.35;;
80694;SDS011;70059;42.702;23.312;2023-11-22T02:29:26;39.38;;;23.63;;
80694;SDS011;70059;42.702;23.312;2023-11-22T02:31:52;32.38;;;22.30;;
80694;SDS011;70059;42.702;23.312;2023-11-22T02:34:18;33.95;;;22.73;;
80694;SDS011;70059;42.702;23.312;2023-11-22T02:36:44;34.17;;;22.48;;
80694;SDS011;70059;42.702;23.312;2023-11-22T02:39:10;31.73;;;20.90;;
80694;SDS011;70059;42.702;23.312;2023-11-22T02:41:36;30.50;;;21.08;;
80694;SDS011;70059;42.702;23.312;2023-11-22T02:44:02;29.30;;;21.27;;
80694;SDS011;70059;42.702;23.312;2023-11-22T02:46:27;27.13;;;20.73;;
80694;SDS011;70059;42.702;23.312;2023-11-22T02:48:56;31.98;;;21.45;;
80694;SDS011;70059;42.702;23.312;2023-11-22T02:51:21;29.13;;;20.45;;
80694;SDS011;70059;42.702;23.312;2023-11-22T02:53:47;27.35;;;20.92;;
80694;SDS011;70059;42.702;23.312;2023-11-22T02:56:15;32.83;;;20.77;;
80694;SDS011;70059;42.702;23.312;2023-11-22T02:58:41;27.73;;;20.70;;
80694;SDS011;70059;42.702;23.312;2023-11-22T03:01:07;31.45;;;20.95;;
80694;SDS011;70059;42.702;23.312;2023-11-22T03:03:33;33.35;;;21.60;;
80694;SDS011;70059;42.702;23.312;2023-11-22T03:05:59;32.30;;;21.38;;
80694;SDS011;70059;42.702;23.312;2023-11-22T03:08:25;30.20;;;20.20;;
80694;SDS011;70059;42.702;23.312;2023-11-22T03:10:52;29.25;;;21.67;;
80694;SDS011;70059;42.702;23.312;2023-11-22T03:13:18;27.75;;;20.25;;
80694;SDS011;70059;42.702;23.312;2023-11-22T03:15:43;31.10;;;20.65;;
80694;SDS011;70059;42.702;23.312;2023-11-22T03:18:09;30.30;;;20.73;;
80694;SDS011;70059;42.702;23.312;2023-11-22T03:20:36;35.33;;;21.50;;
80694;SDS011;70059;42.702;23.312;2023-11-22T03:23:03;33.45;;;21.23;;
80694;SDS011;70059;42.702;23.312;2023-11-22T03:25:29;35.33;;;21.23;;
80694;SDS011;70059;42.702;23.312;2023-11-22T03:27:56;29.52;;;21.75;;
80694;SDS011;70059;42.702;23.312;2023-11-22T03:30:21;31.10;;;21.25;;
80694;SDS011;70059;42.702;23.312;2023-11-22T03:32:47;33.03;;;21.83;;
80694;SDS011;70059;42.702;23.312;2023-11-22T03:35:14;30.85;;;22.80;;
80694;SDS011;70059;42.702;23.312;2023-11-22T03:37:41;32.92;;;21.83;;
80694;SDS011;70059;42.702;23.312;2023-11-22T03:40:07;29.13;;;21.80;;
80694;SDS011;70059;42.702;23.312;2023-11-22T03:42:35;31.77;;;22.60;;
80694;SDS011;70059;42.702;23.312;2023-11-22T03:45:02;30.80;;;21.95;;
80694;SDS011;70059;42.702;23.312;2023-11-22T03:47:29;31.50;;;21.58;;
80694;SDS011;70059;42.702;23.312;2023-11-22T03:49:56;31.48;;;21.95;;
80694;SDS011;70059;42.702;23.312;2023-11-22T03:52:22;35.88;;;22.77;;
80694;SDS011;70059;42.702;23.312;2023-11-22T03:54:47;33.88;;;22.17;;
80694;SDS011;70059;42.702;23.312;2023-11-22T03:57:13;37.70;;;22.33;;
80694;SDS011;70059;42.702;23.312;2023-11-22T03:59:40;33.30;;;21.92;;
80694;SDS011;70059;42.702;23.312;2023-11-22T04:02:06;35.00;;;21.05;;
80694;SDS011;70059;42.702;23.312;2023-11-22T04:04:32;34.85;;;21.70;;
80694;SDS011;70059;42.702;23.312;2023-11-22T04:06:58;40.47;;;21.85;;
80694;SDS011;70059;42.702;23.312;2023-11-22T04:09:23;37.28;;;22.10;;
80694;SDS011;70059;42.702;23.312;2023-11-22T04:11:49;31.52;;;20.55;;
80694;SDS011;70059;42.702;23.312;2023-11-22T04:14:15;34.50;;;21.35;;
80694;SDS011;70059;42.702;23.312;2023-11-22T04:16:40;30.25;;;21.45;;
80694;SDS011;70059;42.702;23.312;2023-11-22T04:19:06;32.25;;;21.02;;
80694;SDS011;70059;42.702;23.312;2023-11-22T04:21:32;30.95;;;21.35;;
80694;SDS011;70059;42.702;23.312;2023-11-22T04:23:57;33.63;;;21.13;;
80694;SDS011;70059;42.702;23.312;2023-11-22T04:26:23;38.75;;;24.05;;
80694;SDS011;70059;42.702;23.312;2023-11-22T04:28:49;39.88;;;26.23;;
80694;SDS011;70059;42.702;23.312;2023-11-22T04:31:15;35.00;;;23.88;;
80694;SDS011;70059;42.702;23.312;2023-11-22T04:33:41;39.90;;;24.27;;
80694;SDS011;70059;42.702;23.312;2023-11-22T04:36:07;38.83;;;24.85;;
80694;SDS011;70059;42.702;23.312;2023-11-22T04:38:32;42.42;;;25.50;;
80694;SDS011;70059;42.702;23.312;2023-11-22T04:40:59;41.75;;;25.48;;
80694;SDS011;70059;42.702;23.312;2023-11-22T04:43:25;38.70;;;26.45;;
80694;SDS011;70059;42.702;23.312;2023-11-22T04:45:51;46.67;;;28.38;;
80694;SDS011;70059;42.702;23.312;2023-11-22T04:48:16;42.53;;;27.02;;
80694;SDS011;70059;42.702;23.312;2023-11-22T04:50:42;41.65;;;25.92;;
80694;SDS011;70059;42.702;23.312;2023-11-22T04:53:09;58.25;;;27.08;;
80694;SDS011;70059;42.702;23.312;2023-11-22T04:55:35;52.75;;;27.17;;
80694;SDS011;70059;42.702;23.312;2023-11-22T04:58:01;48.25;;;26.05;;
80694;SDS011;70059;42.702;23.312;2023-11-22T05:00:28;40.42;;;25.17;;
80694;SDS011;70059;42.702;23.312;2023-11-22T05:02:54;38.10;;;24.42;;
80694;SDS011;70059;42.702;23.312;2023-11-22T05:05:19;42.78;;;25.25;;
80694;SDS011;70059;42.702;23.312;2023-11-22T05:07:46;40.75;;;24.55;;
80694;SDS011;70059;42.702;23.312;2023-11-22T05:10:15;35.17;;;25.17;;
80694;SDS011;70059;42.702;23.312;2023-11-22T05:12:42;40.78;;;25.30;;
80694;SDS011;70059;42.702;23.312;2023-11-22T05:15:08;37.38;;;23.13;;
80694;SDS011;70059;42.702;23.312;2023-11-22T05:17:34;39.80;;;24.65;;
80694;SDS011;70059;42.702;23.312;2023-11-22T05:20:02;39.50;;;25.20;;
80694;SDS011;70059;42.702;23.312;2023-11-22T05:22:30;41.42;;;25.15;;
80694;SDS011;70059;42.702;23.312;2023-11-22T05:24:56;39.85;;;26.33;;
80694;SDS011;70059;42.702;23.312;2023-11-22T05:27:26;50.85;;;28.20;;
80694;SDS011;70059;42.702;23.312;2023-11-22T05:29:53;54.50;;;27.70;;
80694;SDS011;70059;42.702;23.312;2023-11-22T05:32:21;52.67;;;26.73;;
80694;SDS011;70059;42.702;23.312;2023-11-22T05:35:07;42.95;;;26.45;;
80694;SDS011;70059;42.702;23.312;2023-11-22T05:38:07;42.72;;;26.80;;
80694;SDS011;70059;42.702;23.312;2023-11-22T05:40:39;41.83;;;27.33;;
80694;SDS011;70059;42.702;23.312;2023-11-22T05:43:08;40.03;;;25.73;;
80694;SDS011;70059;42.702;23.312;2023-11-22T05:45:34;38.88;;;24.75;;
80694;SDS011;70059;42.702;23.312;2023-11-22T05:48:03;42.63;;;27.92;;
80694;SDS011;70059;42.702;23.312;2023-11-22T05:50:29;46.00;;;27.25;;
80694;SDS011;70059;42.702;23.312;2023-11-22T05:52:55;53.40;;;28.13;;
80694;SDS011;70059;42.702;23.312;2023-11-22T05:55:21;45.90;;;28.58;;
80694;SDS011;70059;42.702;23.312;2023-11-22T05:57:48;46.88;;;28.77;;
80694;SDS011;70059;42.702;23.312;2023-11-22T06:00:14;45.92;;;29.65;;
80694;SDS011;70059;42.702;23.312;2023-11-22T06:02:44;50.00;;;30.08;;
80694;SDS011;70059;42.702;23.312;2023-11-22T06:05:10;51.47;;;32.60;;
80694;SDS011;70059;42.702;23.312;2023-11-22T06:10:18;43.25;;;27.63;;
80694;SDS011;70059;42.702;23.312;2023-11-22T06:12:49;41.17;;;25.23;;
80694;SDS011;70059;42.702;23.312;2023-11-22T06:17:40;47.75;;;27.70;;
80694;SDS011;70059;42.702;23.312;2023-11-22T06:30:27;43.80;;;28.55;;
80694;SDS011;70059;42.702;23.312;2023-11-22T06:32:53;40.63;;;27.73;;
80694;SDS011;70059;42.702;23.312;2023-11-22T06:35:20;42.20;;;24.63;;
80694;SDS011;70059;42.702;23.312;2023-11-22T06:37:46;39.92;;;27.35;;
80694;SDS011;70059;42.702;23.312;2023-11-22T06:42:50;38.92;;;25.70;;
80694;SDS011;70059;42.702;23.312;2023-11-22T06:45:18;40.35;;;27.55;;
80694;SDS011;70059;42.702;23.312;2023-11-22T06:47:48;38.03;;;25.98;;
80694;SDS011;70059;42.702;23.312;2023-11-22T06:53:16;41.30;;;27.88;;
80694;SDS011;70059;42.702;23.312;2023-11-22T06:55:51;39.13;;;26.27;;
80694;SDS011;70059;42.702;23.312;2023-11-22T07:00:55;36.05;;;25.65;;
80694;SDS011;70059;42.702;23.312;2023-11-22T07:03:21;41.30;;;26.75;;
80694;SDS011;70059;42.702;23.312;2023-11-22T07:05:50;37.67;;;25.83;;
80694;SDS011;70059;42.702;23.312;2023-11-22T07:08:25;33.97;;;24.42;;
80694;SDS011;70059;42.702;23.312;2023-11-22T07:10:59;36.60;;;26.20;;
80694;SDS011;70059;42.702;23.312;2023-11-22T08:43:33;26.63;;;19.55;;
80694;SDS011;70059;42.702;23.312;2023-11-22T08:46:00;24.85;;;19.33;;
80694;SDS011;70059;42.702;23.312;2023-11-22T08:51:06;27.90;;;19.23;;
80694;SDS011;70059;42.702;23.312;2023-11-22T08:56:08;27.92;;;19.45;;
80694;SDS011;70059;42.702;23.312;2023-11-22T08:58:34;29.90;;;21.48;;
80694;SDS011;70059;42.702;23.312;2023-11-22T09:33:45;25.88;;;19.23;;
80694;SDS011;70059;42.702;23.312;2023-11-22T09:36:12;27.13;;;19.98;;
80694;SDS011;70059;42.702;23.312;2023-11-22T09:38:40;27.73;;;20.05;;
80694;SDS011;70059;42.702;23.312;2023-11-22T09:41:05;32.65;;;21.92;;
80694;SDS011;70059;42.702;23.312;2023-11-22T09:43:34;26.15;;;21.05;;
80694;SDS011;70059;42.702;23.312;2023-11-22T09:46:00;32.13;;;22.77;;
80694;SDS011;70059;42.702;23.312;2023-11-22T09:48:26;30.85;;;23.02;;
80694;SDS011;70059;42.702;23.312;2023-11-22T09:53:56;33.72;;;22.77;;
80694;SDS011;70059;42.702;23.312;2023-11-22T09:56:48;30.77;;;23.08;;
80694;SDS011;70059;42.702;23.312;2023-11-22T09:59:30;28.80;;;20.80;;
80694;SDS011;70059;42.702;23.312;2023-11-22T10:01:57;29.55;;;21.70;;
80694;SDS011;70059;42.702;23.312;2023-11-22T10:07:23;30.52;;;21.77;;
80694;SDS011;70059;42.702;23.312;2023-11-22T10:09:53;26.65;;;20.35;;
80694;SDS011;70059;42.702;23.312;2023-11-22T10:12:43;29.40;;;20.52;;
80694;SDS011;70059;42.702;23.312;2023-11-22T10:15:21;27.00;;;20.42;;
80694;SDS011;70059;42.702;23.312;2023-11-22T10:17:49;27.17;;;20.58;;
80694;SDS011;70059;42.702;23.312;2023-11-22T10:28:19;30.80;;;22.05;;
80694;SDS011;70059;42.702;23.312;2023-11-22T10:30:46;29.20;;;22.48;;
80694;SDS011;70059;42.702;23.312;2023-11-22T10:33:13;29.17;;;21.45;;
80694;SDS011;70059;42.702;23.312;2023-11-22T10:35:46;34.05;;;23.08;;
80694;SDS011;70059;42.702;23.312;2023-11-22T10:38:13;26.70;;;21.00;;
80694;SDS011;70059;42.702;23.312;2023-11-22T10:43:15;26.98;;;22.13;;
80694;SDS011;70059;42.702;23.312;2023-11-22T10:45:44;28.05;;;20.50;;
80694;SDS011;70059;42.702;23.312;2023-11-22T10:48:14;21.95;;;19.55;;
80694;SDS011;70059;42.702;23.312;2023-11-22T10:50:47;25.80;;;21.25;;
80694;SDS011;70059;42.702;23.312;2023-11-22T10:53:19;24.45;;;20.17;;
80694;SDS011;70059;42.702;23.312;2023-11-22T10:55:49;24.88;;;20.98;;
80694;SDS011;70059;42.702;23.312;2023-11-22T10:58:22;25.15;;;19.90;;
80694;SDS011;70059;42.702;23.312;2023-11-22T11:00:50;29.27;;;21.85;;
80694;SDS011;70059;42.702;23.312;2023-11-22T11:03:20;24.50;;;20.73;;
80694;SDS011;70059;42.702;23.312;2023-11-22T11:25:41;31.48;;;23.38;;
80694;SDS011;70059;42.702;23.312;2023-11-22T11:28:14;32.45;;;23.83;;
80694;SDS011;70059;42.702;23.312;2023-11-22T11:30:49;32.35;;;23.52;;
80694;SDS011;70059;42.702;23.312;2023-11-22T11:36:33;33.53;;;25.10;;
80694;SDS011;70059;42.702;23.312;2023-11-22T11:39:12;34.00;;;26.38;;
80694;SDS011;70059;42.702;23.312;2023-11-22T11:41:40;34.17;;;26.98;;
80694;SDS011;70059;42.702;23.312;2023-11-22T11:44:07;35.38;;;25.25;;
80694;SDS011;70059;42.702;23.312;2023-11-22T11:46:37;33.78;;;24.85;;
80694;SDS011;70059;42.702;23.312;2023-11-22T11:49:08;34.08;;;26.05;;
80694;SDS011;70059;42.702;23.312;2023-11-22T11:51:39;34.60;;;25.15;;
80694;SDS011;70059;42.702;23.312;2023-11-22T11:54:04;33.78;;;24.35;;
80694;SDS011;70059;42.702;23.312;2023-11-22T11:56:31;29.30;;;23.30;;
80694;SDS011;70059;42.702;23.312;2023-11-22T11:58:58;29.73;;;24.10;;
80694;SDS011;70059;42.702;23.312;2023-11-22T12:01:29;33.33;;;23.88;;
80694;SDS011;70059;42.702;23.312;2023-11-22T12:03:57;31.88;;;24.35;;
80694;SDS011;70059;42.702;23.312;2023-11-22T12:06:26;31.52;;;24.08;;
80694;SDS011;70059;42.702;23.312;2023-11-22T12:08:54;28.80;;;21.42;;
80694;SDS011;70059;42.702;23.312;2023-11-22T12:11:26;27.48;;;20.17;;
80694;SDS011;70059;42.702;23.312;2023-11-22T12:13:59;30.27;;;19.83;;
80694;SDS011;70059;42.702;23.312;2023-11-22T12:29:47;21.95;;;17.80;;
80694;SDS011;70059;42.702;23.312;2023-11-22T12:32:15;20.48;;;17.25;;
80694;SDS011;70059;42.702;23.312;2023-11-22T12:34:43;22.83;;;17.33;;
80694;SDS011;70059;42.702;23.312;2023-11-22T12:37:13;28.20;;;19.13;;
80694;SDS011;70059;42.702;23.312;2023-11-22T12:39:40;23.05;;;18.05;;
80694;SDS011;70059;42.702;23.312;2023-11-22T12:42:06;25.50;;;18.65;;
80694;SDS011;70059;42.702;23.312;2023-11-22T12:44:47;24.98;;;19.20;;
80694;SDS011;70059;42.702;23.312;2023-11-22T12:47:14;30.70;;;19.40;;
80694;SDS011;70059;42.702;23.312;2023-11-22T12:49:49;27.25;;;19.73;;
80694;SDS011;70059;42.702;23.312;2023-11-22T12:52:29;26.63;;;17.58;;
80694;SDS011;70059;42.702;23.312;2023-11-22T12:55:19;25.70;;;18.80;;
80694;SDS011;70059;42.702;23.312;2023-11-22T12:57:57;25.63;;;19.27;;
80694;SDS011;70059;42.702;23.312;2023-11-22T13:00:28;32.45;;;19.45;;
80694;SDS011;70059;42.702;23.312;2023-11-22T13:02:58;25.30;;;19.23;;
80694;SDS011;70059;42.702;23.312;2023-11-22T13:05:27;26.67;;;18.40;;
80694;SDS011;70059;42.702;23.312;2023-11-22T13:07:58;26.98;;;17.58;;
80694;SDS011;70059;42.702;23.312;2023-11-22T13:10:24;28.17;;;18.20;;
80694;SDS011;70059;42.702;23.312;2023-11-22T13:12:54;29.83;;;19.73;;
80694;SDS011;70059;42.702;23.312;2023-11-22T13:15:20;28.73;;;20.73;;
80694;SDS011;70059;42.702;23.312;2023-11-22T13:17:50;30.17;;;19.73;;
80694;SDS011;70059;42.702;23.312;2023-11-22T13:20:23;25.48;;;18.05;;
80694;SDS011;70059;42.702;23.312;2023-11-22T13:22:50;21.65;;;18.08;;
80694;SDS011;70059;42.702;23.312;2023-11-22T13:25:17;28.45;;;19.10;;
80694;SDS011;70059;42.702;23.312;2023-11-22T13:27:44;28.05;;;19.52;;
80694;SDS011;70059;42.702;23.312;2023-11-22T13:30:12;32.75;;;19.35;;
80694;SDS011;70059;42.702;23.312;2023-11-22T13:32:39;23.40;;;17.02;;
80694;SDS011;70059;42.702;23.312;2023-11-22T13:35:08;20.02;;;16.85;;
80694;SDS011;70059;42.702;23.312;2023-11-22T13:37:48;27.02;;;19.73;;
80694;SDS011;70059;42.702;23.312;2023-11-22T13:40:16;25.50;;;18.23;;
80694;SDS011;70059;42.702;23.312;2023-11-22T13:42:55;21.23;;;18.20;;
80694;SDS011;70059;42.702;23.312;2023-11-22T13:45:25;25.38;;;18.75;;
80694;SDS011;70059;42.702;23.312;2023-11-22T13:47:51;25.60;;;17.90;;
80694;SDS011;70059;42.702;23.312;2023-11-22T13:53:13;21.63;;;16.52;;
80694;SDS011;70059;42.702;23.312;2023-11-22T13:55:52;22.05;;;16.65;;
80694;SDS011;70059;42.702;23.312;2023-11-22T13:58:27;21.25;;;14.35;;
80694;SDS011;70059;42.702;23.312;2023-11-22T14:01:05;17.73;;;14.43;;
80694;SDS011;70059;42.702;23.312;2023-11-22T14:03:36;21.10;;;17.50;;
80694;SDS011;70059;42.702;23.312;2023-11-22T14:06:03;31.90;;;20.95;;
80694;SDS011;70059;42.702;23.312;2023-11-22T14:08:31;23.73;;;17.33;;
80694;SDS011;70059;42.702;23.312;2023-11-22T14:10:57;23.90;;;17.25;;
80694;SDS011;70059;42.702;23.312;2023-11-22T14:13:26;24.77;;;17.38;;
80694;SDS011;70059;42.702;23.312;2023-11-22T14:16:06;21.85;;;17.08;;
80694;SDS011;70059;42.702;23.312;2023-11-22T14:18:54;22.25;;;16.85;;
80694;SDS011;70059;42.702;23.312;2023-11-22T14:21:19;28.75;;;21.05;;
80694;SDS011;70059;42.702;23.312;2023-11-22T14:23:50;22.65;;;16.77;;
80694;SDS011;70059;42.702;23.312;2023-11-22T14:26:18;24.73;;;17.70;;
80694;SDS011;70059;42.702;23.312;2023-11-22T14:28:44;23.88;;;17.50;;
80694;SDS011;70059;42.702;23.312;2023-11-22T14:31:09;24.27;;;18.83;;
80694;SDS011;70059;42.702;23.312;2023-11-22T14:33:35;24.40;;;18.45;;
80694;SDS011;70059;42.702;23.312;2023-11-22T14:36:01;25.00;;;18.70;;
80694;SDS011;70059;42.702;23.312;2023-11-22T14:38:27;25.48;;;18.73;;
80694;SDS011;70059;42.702;23.312;2023-11-22T14:40:53;24.38;;;19.70;;
80694;SDS011;70059;42.702;23.312;2023-11-22T14:43:21;24.65;;;19.00;;
80694;SDS011;70059;42.702;23.312;2023-11-22T14:45:47;29.42;;;18.85;;
80694;SDS011;70059;42.702;23.312;2023-11-22T14:48:13;24.00;;;18.13;;
80694;SDS011;70059;42.702;23.312;2023-11-22T14:50:39;27.95;;;19.35;;
80694;SDS011;70059;42.702;23.312;2023-11-22T14:53:06;25.65;;;20.55;;
80694;SDS011;70059;42.702;23.312;2023-11-22T14:55:35;27.23;;;19.00;;
80694;SDS011;70059;42.702;23.312;2023-11-22T14:58:05;25.47;;;18.37;;
80694;SDS011;70059;42.702;23.312;2023-11-22T15:00:31;26.30;;;20.77;;
80694;SDS011;70059;42.702;23.312;2023-11-22T15:02:57;26.13;;;19.70;;
80694;SDS011;70059;42.702;23.312;2023-11-22T15:08:16;31.08;;;19.15;;
80694;SDS011;70059;42.702;23.312;2023-11-22T15:10:44;25.08;;;19.15;;
80694;SDS011;70059;42.702;23.312;2023-11-22T15:13:10;29.00;;;18.52;;
80694;SDS011;70059;42.702;23.312;2023-11-22T15:15:36;30.80;;;20.50;;
80694;SDS011;70059;42.702;23.312;2023-11-22T15:18:02;25.15;;;18.75;;
80694;SDS011;70059;42.702;23.312;2023-11-22T15:20:28;26.10;;;19.35;;
80694;SDS011;70059;42.702;23.312;2023-11-22T15:22:54;22.73;;;17.65;;
80694;SDS011;70059;42.702;23.312;2023-11-22T15:25:21;26.20;;;18.98;;
80694;SDS011;70059;42.702;23.312;2023-11-22T15:27:47;22.48;;;18.45;;
80694;SDS011;70059;42.702;23.312;2023-11-22T15:30:12;36.25;;;19.33;;
80694;SDS011;70059;42.702;23.312;2023-11-22T15:32:38;27.10;;;21.58;;
80694;SDS011;70059;42.702;23.312;2023-11-22T15:35:04;22.98;;;16.55;;
80694;SDS011;70059;42.702;23.312;2023-11-22T15:37:30;22.73;;;17.30;;
80694;SDS011;70059;42.702;23.312;2023-11-22T15:39:57;22.67;;;18.33;;
80694;SDS011;70059;42.702;23.312;2023-11-22T16:31:10;26.40;;;16.30;;
80694;SDS011;70059;42.702;23.312;2023-11-22T16:33:40;22.48;;;16.75;;
80694;SDS011;70059;42.702;23.312;2023-11-22T16:36:09;19.80;;;16.52;;
80694;SDS011;70059;42.702;23.312;2023-11-22T16:38:35;19.40;;;16.02;;
80694;SDS011;70059;42.702;23.312;2023-11-22T16:41:01;22.42;;;16.10;;
80694;SDS011;70059;42.702;23.312;2023-11-22T16:43:29;20.75;;;16.92;;
80694;SDS011;70059;42.702;23.312;2023-11-22T16:45:55;24.30;;;16.98;;
80694;SDS011;70059;42.702;23.312;2023-11-22T16:48:21;18.90;;;15.63;;
80694;SDS011;70059;42.702;23.312;2023-11-22T16:50:51;20.40;;;16.48;;
80694;SDS011;70059;42.702;23.312;2023-11-22T16:53:18;20.80;;;15.18;;
80694;SDS011;70059;42.702;23.312;2023-11-22T16:55:44;18.02;;;14.55;;
80694;SDS011;70059;42.702;23.312;2023-11-22T16:58:10;18.35;;;14.63;;
80694;SDS011;70059;42.702;23.312;2023-11-22T17:00:36;17.27;;;14.80;;
80694;SDS011;70059;42.702;23.312;2023-11-22T17:03:01;18.27;;;15.30;;
80694;SDS011;70059;42.702;23.312;2023-11-22T17:05:27;23.42;;;17.02;;
80694;SDS011;70059;42.702;23.312;2023-11-22T17:07:54;23.70;;;17.30;;
80694;SDS011;70059;42.702;23.312;2023-11-22T17:10:23;22.67;;;16.58;;
80694;SDS011;70059;42.702;23.312;2023-11-22T17:12:49;17.20;;;13.77;;
80694;SDS011;70059;42.702;23.312;2023-11-22T17:15:19;16.13;;;14.25;;
80694;SDS011;70059;42.702;23.312;2023-11-22T17:20:47;24.83;;;16.60;;
80694;SDS011;70059;42.702;23.312;2023-11-22T17:23:23;20.95;;;15.98;;
80694;SDS011;70059;42.702;23.312;2023-11-22T17:25:49;21.88;;;15.85;;
80694;SDS011;70059;42.702;23.312;2023-11-22T17:28:15;26.90;;;19.20;;
80694;SDS011;70059;42.702;23.312;2023-11-22T17:30:40;22.15;;;15.02;;
80694;SDS011;70059;42.702;23.312;2023-11-22T17:33:06;19.73;;;15.00;;
80694;SDS011;70059;42.702;23.312;2023-11-22T17:35:31;21.08;;;16.13;;
80694;SDS011;70059;42.702;23.312;2023-11-22T17:37:57;53.38;;;38.58;;
80694;SDS011;70059;42.702;23.312;2023-11-22T17:40:25;34.47;;;27.58;;
80694;SDS011;70059;42.702;23.312;2023-11-22T17:42:51;52.15;;;37.53;;
80694;SDS011;70059;42.702;23.312;2023-11-22T17:45:17;43.85;;;30.17;;
80694;SDS011;70059;42.702;23.312;2023-11-22T17:47:43;22.77;;;18.60;;
80694;SDS011;70059;42.702;23.312;2023-11-22T17:50:09;25.05;;;18.23;;
80694;SDS011;70059;42.702;23.312;2023-11-22T17:52:34;18.17;;;13.20;;
80694;SDS011;70059;42.702;23.312;2023-11-22T17:55:00;18.60;;;14.65;;
80694;SDS011;70059;42.702;23.312;2023-11-22T17:57:28;14.20;;;12.73;;
80694;SDS011;70059;42.702;23.312;2023-11-22T17:59:54;14.52;;;13.02;;
80694;SDS011;70059;42.702;23.312;2023-11-22T18:02:20;14.73;;;13.13;;
80694;SDS011;70059;42.702;23.312;2023-11-22T18:04:46;17.88;;;12.98;;
80694;SDS011;70059;42.702;23.312;2023-11-22T18:07:12;16.92;;;13.43;;
80694;SDS011;70059;42.702;23.312;2023-11-22T18:09:38;15.95;;;13.35;;
80694;SDS011;70059;42.702;23.312;2023-11-22T18:12:04;19.50;;;14.80;;
80694;SDS011;70059;42.702;23.312;2023-11-22T18:14:33;17.77;;;15.05;;
80694;SDS011;70059;42.702;23.312;2023-11-22T18:17:00;28.93;;;20.43;;
80694;SDS011;70059;42.702;23.312;2023-11-22T18:19:26;25.15;;;19.45;;
80694;SDS011;70059;42.702;23.312;2023-11-22T18:21:52;23.05;;;16.48;;
80694;SDS011;70059;42.702;23.312;2023-11-22T18:24:18;23.48;;;16.77;;
80694;SDS011;70059;42.702;23.312;2023-11-22T18:26:46;24.80;;;17.52;;
80694;SDS011;70059;42.702;23.312;2023-11-22T18:29:12;30.17;;;16.90;;
80694;SDS011;70059;42.702;23.312;2023-11-22T18:31:40;30.00;;;19.63;;
80694;SDS011;70059;42.702;23.312;2023-11-22T18:34:07;28.55;;;21.15;;